Time;durP1;ratioP1;P1;durP2;ratioP2;P2;SDS_P1;SDS_P2;PMS_P1;PMS_P2;Temp;Humidity;BMP_temperature;BMP_pressure;BME280_temperature;BME280_humidity;BME280_pressure;Samples;Min_cycle;Max_cycle;Signal;HPM_P1;HPM_P2
2024/01/27 00:01:20;;;;;;;0.20;0.20;;;;;;;33.93;22.16;101282.66;7395571;19;20014;-54
2024/01/27 00:03:46;;;;;;;9.32;1.17;;;;;;;33.85;22.26;101277.00;7395505;19;20102;-53
2024/01/27 00:06:12;;;;;;;0.55;0.28;;;;;;;34.12;22.25;101276.91;7396422;19;20459;-54
2024/01/27 00:08:38;;;;;;;1.50;0.93;;;;;;;33.76;22.27;101277.00;7395633;19;20530;-53
2024/01/27 00:11:04;;;;;;;4.40;0.73;;;;;;;33.30;22.39;101271.22;7394679;19;20006;-53
2024/01/27 00:13:30;;;;;;;3.00;0.38;;;;;;;32.79;22.64;101275.81;7394521;19;20010;-54
2024/01/27 00:15:57;;;;;;;2.58;0.93;;;;;;;32.90;22.68;101275.28;7394837;19;20503;-54
2024/01/27 00:18:23;;;;;;;1.45;0.40;;;;;;;33.49;22.47;101282.84;7394472;19;20010;-54
2024/01/27 00:20:49;;;;;;;0.17;0.17;;;;;;;33.43;22.47;101283.16;7393947;19;20018;-53
2024/01/27 00:23:15;;;;;;;0.28;0.20;;;;;;;33.39;22.55;101285.72;7393395;19;20095;-53
2024/01/27 00:25:42;;;;;;;10.88;1.33;;;;;;;33.46;22.64;101281.19;7395470;19;20092;-53
2024/01/27 00:28:08;;;;;;;0.65;0.57;;;;;;;33.88;22.25;101275.81;7392044;19;20484;-54
2024/01/27 00:30:34;;;;;;;10.90;1.08;;;;;;;33.44;22.59;101281.75;7396212;19;20015;-53
2024/01/27 00:33:00;;;;;;;0.73;0.43;;;;;;;33.16;22.87;101278.78;7394712;19;20086;-54
2024/01/27 00:35:26;;;;;;;0.47;0.47;;;;;;;33.18;22.95;101276.06;7394894;19;20035;-53
2024/01/27 00:37:52;;;;;;;0.22;0.22;;;;;;;33.49;22.70;101285.72;7394282;19;20030;-53
2024/01/27 00:40:19;;;;;;;0.30;0.30;;;;;;;33.51;22.63;101275.13;7389804;19;20464;-54
2024/01/27 00:42:45;;;;;;;1.90;0.90;;;;;;;33.92;22.23;101290.56;7390633;19;20011;-53
2024/01/27 00:45:11;;;;;;;13.00;1.15;;;;;;;34.20;22.15;101286.19;7390883;19;20013;-54
2024/01/27 00:47:37;;;;;;;0.25;0.25;;;;;;;34.27;22.26;101280.28;7389845;19;20011;-54
2024/01/27 00:50:04;;;;;;;0.20;0.20;;;;;;;34.28;21.78;101281.78;7390041;19;20011;-53
2024/01/27 00:52:30;;;;;;;2.05;0.88;;;;;;;34.03;22.33;101287.13;7394194;19;20010;-53
2024/01/27 00:54:56;;;;;;;0.22;0.20;;;;;;;33.69;22.90;101278.69;7391681;19;20045;-53
2024/01/27 00:57:22;;;;;;;0.35;0.35;;;;;;;33.75;22.44;101278.38;7398123;19;20050;-53
2024/01/27 00:59:48;;;;;;;0.40;0.40;;;;;;;34.21;21.72;101274.03;7394536;19;20354;-53
2024/01/27 01:02:14;;;;;;;0.13;0.13;;;;;;;34.42;21.83;101272.63;7397338;19;20019;-54
2024/01/27 01:04:42;;;;;;;0.32;0.32;;;;;;;34.46;21.62;101272.97;7395359;19;20010;-53
2024/01/27 01:07:08;;;;;;;0.25;0.25;;;;;;;34.56;21.71;101259.25;7391944;19;20094;-53
2024/01/27 01:09:34;;;;;;;3.20;1.10;;;;;;;34.66;21.99;101269.44;7393303;19;20014;-53
2024/01/27 01:12:00;;;;;;;8.60;1.85;;;;;;;34.48;21.73;101268.06;7393152;19;20014;-53
2024/01/27 01:14:26;;;;;;;0.38;0.32;;;;;;;34.47;21.93;101257.88;7397097;19;20015;-53
2024/01/27 01:16:52;;;;;;;0.10;0.10;;;;;;;34.37;22.20;101250.59;7393039;19;20014;-53
2024/01/27 01:19:18;;;;;;;1.52;0.57;;;;;;;34.28;21.94;101246.31;7393350;19;20050;-54
2024/01/27 01:21:44;;;;;;;0.10;0.10;;;;;;;34.16;21.82;101246.19;7391314;19;20027;-53
2024/01/27 01:24:11;;;;;;;1.35;0.55;;;;;;;34.13;22.00;101250.28;7394104;19;20021;-54
2024/01/27 01:26:37;;;;;;;0.60;0.32;;;;;;;33.82;22.46;101255.13;7395498;19;20042;-54
2024/01/27 01:29:03;;;;;;;10.18;0.80;;;;;;;33.70;22.39;101262.09;7393166;19;20320;-53
2024/01/27 01:31:30;;;;;;;1.17;0.47;;;;;;;33.59;22.27;101258.41;7392575;19;20010;-53
2024/01/27 01:33:56;;;;;;;0.68;0.20;;;;;;;33.77;22.13;101264.06;7395289;19;20007;-54
2024/01/27 01:36:22;;;;;;;0.45;0.20;;;;;;;33.53;22.39;101260.84;7390515;19;20011;-54
2024/01/27 01:38:48;;;;;;;0.47;0.47;;;;;;;33.37;22.56;101267.47;7390954;19;20422;-53
2024/01/27 01:41:14;;;;;;;1.02;0.85;;;;;;;33.00;22.82;101277.50;7392873;19;20019;-54
2024/01/27 01:43:40;;;;;;;0.17;0.17;;;;;;;33.84;22.33;101277.63;7392668;19;20011;-54
2024/01/27 01:46:07;;;;;;;0.57;0.43;;;;;;;34.15;22.12;101267.81;7392458;19;20011;-54
2024/01/27 01:48:33;;;;;;;0.10;0.10;;;;;;;33.94;22.17;101263.97;7396189;19;20015;-53
2024/01/27 01:51:00;;;;;;;0.80;0.75;;;;;;;33.75;22.48;101266.81;7394755;19;20030;-54
2024/01/27 01:53:27;;;;;;;0.28;0.28;;;;;;;33.53;22.23;101262.97;7399977;19;20018;-53
2024/01/27 01:55:53;;;;;;;0.13;0.13;;;;;;;33.30;22.51;101265.44;7403406;19;20011;-53
2024/01/27 01:58:19;;;;;;;0.10;0.10;;;;;;;33.38;22.53;101266.09;7398274;19;20018;-53
2024/01/27 02:00:46;;;;;;;0.65;0.57;;;;;;;33.19;22.73;101268.91;7399351;19;20348;-54
2024/01/27 02:03:13;;;;;;;0.28;0.28;;;;;;;33.51;22.81;101268.59;7397996;19;20420;-54
2024/01/27 02:05:39;;;;;;;4.15;0.85;;;;;;;33.71;22.45;101273.03;7399372;19;20010;-53
2024/01/27 02:08:06;;;;;;;0.30;0.30;;;;;;;33.80;22.22;101277.31;7401298;19;20015;-54
2024/01/27 02:10:36;;;;;;;2.40;1.30;;;;;;;33.55;22.61;101274.66;7398837;19;20039;-53
2024/01/27 02:13:15;;;;;;;1.55;1.35;;;;;;;33.52;22.53;101275.91;7398921;19;20019;-54
2024/01/27 02:15:42;;;;;;;1.85;1.27;;;;;;;33.74;22.15;101265.31;7398902;19;20007;-53
2024/01/27 02:18:08;;;;;;;3.40;1.00;;;;;;;33.80;22.38;101265.75;7399471;19;20010;-54
2024/01/27 02:20:34;;;;;;;0.20;0.20;;;;;;;33.64;22.51;101253.72;7398751;19;20010;-53
2024/01/27 02:23:03;;;;;;;0.10;0.10;;;;;;;33.82;22.26;101258.00;7399000;19;20011;-54
2024/01/27 02:25:29;;;;;;;0.70;0.30;;;;;;;33.88;22.18;101261.34;7399907;19;20479;-53
2024/01/27 02:27:56;;;;;;;0.28;0.28;;;;;;;33.58;22.55;101244.56;7395828;19;20026;-53
2024/01/27 02:30:22;;;;;;;0.43;0.43;;;;;;;33.44;22.38;101246.34;7398773;19;20006;-53
2024/01/27 02:32:48;;;;;;;0.52;0.28;;;;;;;33.55;22.13;101258.09;7397301;19;20011;-54
2024/01/27 02:35:14;;;;;;;11.05;0.50;;;;;;;33.38;22.31;101248.75;7398463;19;20043;-53
2024/01/27 02:37:41;;;;;;;0.22;0.22;;;;;;;33.28;22.59;101251.63;7397756;19;20023;-53
2024/01/27 02:40:09;;;;;;;1.08;0.38;;;;;;;33.35;22.66;101249.97;7398130;19;20011;-53
2024/01/27 02:42:37;;;;;;;0.30;0.20;;;;;;;33.38;22.48;101263.19;7397713;19;20014;-53
2024/01/27 02:45:04;;;;;;;0.65;0.43;;;;;;;33.60;22.50;101248.38;7397249;19;20011;-53
2024/01/27 02:47:30;;;;;;;1.17;0.68;;;;;;;33.37;22.57;101244.34;7397093;19;20408;-53
2024/01/27 02:49:56;;;;;;;4.20;0.75;;;;;;;33.48;22.66;101244.50;7397363;19;20026;-54
2024/01/27 02:52:22;;;;;;;1.65;1.10;;;;;;;33.17;22.74;101248.53;7401242;19;20021;-53
2024/01/27 02:54:48;;;;;;;0.28;0.28;;;;;;;32.92;22.78;101254.47;7398060;19;20014;-53
2024/01/27 02:57:16;;;;;;;3.60;0.32;;;;;;;32.89;23.00;101244.13;7401456;19;20076;-54
2024/01/27 02:59:47;;;;;;;4.57;0.55;;;;;;;32.90;23.07;101246.41;7397784;19;20011;-54
2024/01/27 03:02:13;;;;;;;0.20;0.20;;;;;;;32.84;22.96;101245.94;7395231;19;20070;-54
2024/01/27 03:04:39;;;;;;;0.47;0.47;;;;;;;33.08;22.81;101238.47;7399627;19;21172;-53
2024/01/27 03:07:06;;;;;;;1.00;0.43;;;;;;;33.23;22.83;101237.44;7394896;19;20014;-54
2024/01/27 03:09:32;;;;;;;0.30;0.30;;;;;;;33.33;22.55;101241.16;7396644;19;20025;-54
2024/01/27 03:11:58;;;;;;;0.17;0.17;;;;;;;33.27;22.65;101234.88;7397456;19;20039;-54
2024/01/27 03:14:24;;;;;;;1.33;0.73;;;;;;;33.12;22.69;101229.34;7400329;19;20508;-54
2024/01/27 03:16:51;;;;;;;1.83;0.57;;;;;;;33.21;22.93;101232.28;7396630;19;20015;-54
2024/01/27 03:19:17;;;;;;;4.13;1.48;;;;;;;33.15;22.53;101226.03;7396573;19;20048;-53
2024/01/27 03:21:43;;;;;;;2.92;0.55;;;;;;;33.16;22.68;101232.59;7395946;19;20030;-53
2024/01/27 03:24:09;;;;;;;0.77;0.45;;;;;;;33.39;22.69;101233.72;7397321;19;20015;-53
2024/01/27 03:26:36;;;;;;;6.43;0.45;;;;;;;33.38;22.73;101237.19;7395547;19;20455;-53
2024/01/27 03:29:02;;;;;;;1.90;0.75;;;;;;;33.33;22.80;101246.94;7395759;19;20106;-53
2024/01/27 03:31:31;;;;;;;0.55;0.55;;;;;;;33.50;22.83;101243.94;7396407;19;20015;-53
2024/01/27 03:33:59;;;;;;;2.53;0.88;;;;;;;31.88;23.33;101255.19;7394921;19;20471;-53
2024/01/27 03:36:25;;;;;;;0.40;0.40;;;;;;;31.69;23.81;101263.63;7396023;19;20015;-54
2024/01/27 03:38:51;;;;;;;1.55;0.57;;;;;;;31.44;23.70;101266.56;7395153;19;20058;-53
2024/01/27 03:41:17;;;;;;;6.45;0.80;;;;;;;31.17;24.17;101274.22;7396440;19;20018;-53
2024/01/27 03:43:43;;;;;;;4.72;0.50;;;;;;;31.11;24.16;101273.72;7396719;19;20324;-53
2024/01/27 03:46:09;;;;;;;0.20;0.20;;;;;;;31.03;24.46;101270.91;7394742;19;20435;-54
2024/01/27 03:48:35;;;;;;;0.28;0.28;;;;;;;30.93;24.39;101269.97;7397732;19;20010;-54
2024/01/27 03:51:02;;;;;;;3.33;0.73;;;;;;;31.02;24.31;101259.94;7395875;19;20018;-53
2024/01/27 03:53:28;;;;;;;0.10;0.10;;;;;;;31.18;24.31;101270.00;7396447;19;20044;-53
2024/01/27 03:55:58;;;;;;;13.05;0.80;;;;;;;31.82;23.53;101261.19;7397625;19;20014;-54
2024/01/27 03:58:24;;;;;;;3.92;1.23;;;;;;;30.89;23.95;101263.09;7395674;19;20014;-53
2024/01/27 04:00:51;;;;;;;0.20;0.20;;;;;;;30.47;24.39;101254.31;7394135;19;20027;-53
2024/01/27 04:03:17;;;;;;;0.40;0.25;;;;;;;31.48;23.25;101246.75;7394337;19;20014;-54
2024/01/27 04:05:43;;;;;;;7.47;0.45;;;;;;;32.26;22.88;101244.00;7394512;19;20522;-54
2024/01/27 04:08:09;;;;;;;1.85;0.30;;;;;;;32.50;23.00;101248.94;7393782;19;20015;-53
2024/01/27 04:10:38;;;;;;;0.10;0.10;;;;;;;32.04;22.86;101236.41;7394913;19;20010;-53
2024/01/27 04:13:05;;;;;;;10.23;0.38;;;;;;;32.68;22.37;101235.97;7395174;19;20018;-54
2024/01/27 04:15:38;;;;;;;0.95;0.63;;;;;;;32.83;22.33;101240.78;7394966;19;20070;-53
2024/01/27 04:18:07;;;;;;;10.18;1.20;;;;;;;32.38;22.18;101224.81;7394983;19;20467;-54
2024/01/27 04:20:34;;;;;;;0.30;0.10;;;;;;;32.24;22.33;101220.78;7395153;19;20013;-53
2024/01/27 04:23:01;;;;;;;0.28;0.10;;;;;;;33.05;22.14;101224.47;7392945;19;20025;-53
2024/01/27 04:25:27;;;;;;;25.55;0.73;;;;;;;32.83;21.87;101212.66;7395437;19;20027;-53
2024/01/27 04:27:53;;;;;;;0.28;0.25;;;;;;;32.79;22.26;101206.56;7393130;19;20010;-53
2024/01/27 04:30:20;;;;;;;0.50;0.50;;;;;;;32.38;22.27;101206.75;7398427;19;20011;-53
2024/01/27 04:32:49;;;;;;;0.38;0.38;;;;;;;32.38;22.29;101204.63;7392910;19;20375;-53
2024/01/27 04:35:15;;;;;;;0.30;0.20;;;;;;;32.85;21.89;101209.91;7393895;19;20455;-53
2024/01/27 04:37:41;;;;;;;0.10;0.10;;;;;;;32.63;22.08;101211.03;7394036;19;20038;-53
2024/01/27 04:40:07;;;;;;;0.20;0.20;;;;;;;31.83;22.46;101207.22;7391659;19;20078;-53
2024/01/27 04:42:34;;;;;;;0.20;0.20;;;;;;;31.54;23.20;101203.28;7398112;19;20014;-53
2024/01/27 04:45:01;;;;;;;2.30;0.75;;;;;;;31.86;22.61;101208.94;7393996;19;20014;-53
2024/01/27 04:47:27;;;;;;;0.10;0.10;;;;;;;31.88;22.98;101211.97;7395243;19;20023;-53
2024/01/27 04:49:53;;;;;;;1.85;0.70;;;;;;;31.73;22.72;101212.88;7394478;19;20006;-53
2024/01/27 04:52:20;;;;;;;0.20;0.20;;;;;;;32.35;22.52;101202.94;7398338;19;20029;-53
2024/01/27 04:54:46;;;;;;;0.20;0.20;;;;;;;31.52;23.41;101211.75;7394275;19;20014;-53
2024/01/27 04:57:12;;;;;;;0.35;0.30;;;;;;;30.75;23.83;101219.44;7395336;19;20017;-53
2024/01/27 04:59:38;;;;;;;0.40;0.40;;;;;;;30.59;23.90;101223.75;7394821;19;20006;-53
2024/01/27 05:02:04;;;;;;;2.05;0.30;;;;;;;31.18;23.88;101224.72;7394290;19;20018;-53
2024/01/27 05:04:31;;;;;;;0.30;0.20;;;;;;;31.84;23.29;101214.50;7398497;19;20349;-53
2024/01/27 05:06:57;;;;;;;2.65;0.73;;;;;;;32.86;22.71;101217.22;7394043;19;20018;-54
2024/01/27 05:09:23;;;;;;;7.78;0.57;;;;;;;31.92;23.35;101212.31;7394246;19;20015;-53
2024/01/27 05:11:51;;;;;;;0.10;0.10;;;;;;;31.02;24.30;101208.91;7394468;19;20399;-53
2024/01/27 05:14:17;;;;;;;0.20;0.20;;;;;;;30.92;24.28;101208.03;7394320;19;20471;-54
2024/01/27 05:16:44;;;;;;;0.10;0.10;;;;;;;30.85;24.15;101203.06;7398246;19;20010;-53
2024/01/27 05:19:11;;;;;;;0.35;0.35;;;;;;;31.59;24.01;101199.41;7394454;19;20481;-50
2024/01/27 05:21:40;;;;;;;0.95;0.30;;;;;;;30.85;24.76;101197.31;7394802;19;20327;-50
2024/01/27 05:24:06;;;;;;;0.38;0.38;;;;;;;30.80;24.76;101203.31;7394453;19;20007;-50
2024/01/27 05:26:32;;;;;;;0.95;0.38;;;;;;;31.00;24.42;101205.88;7400896;19;20011;-50
2024/01/27 05:28:58;;;;;;;0.40;0.20;;;;;;;31.04;24.36;101202.56;7401235;19;20482;-49
2024/01/27 05:31:25;;;;;;;0.95;0.90;;;;;;;31.33;24.49;101207.31;7402924;19;20031;-50
2024/01/27 05:33:52;;;;;;;12.55;0.50;;;;;;;31.39;24.29;101202.06;7401784;19;20017;-50
2024/01/27 05:36:18;;;;;;;0.10;0.10;;;;;;;31.60;23.89;101193.03;7402446;19;20003;-53
2024/01/27 05:38:44;;;;;;;0.20;0.20;;;;;;;31.51;24.18;101202.38;7401937;19;20002;-54
2024/01/27 05:41:10;;;;;;;0.10;0.10;;;;;;;31.39;24.28;101202.06;7402275;19;20471;-53
2024/01/27 05:43:36;;;;;;;1.80;0.95;;;;;;;31.74;24.34;101196.38;7402566;19;20014;-53
2024/01/27 05:46:03;;;;;;;0.10;0.10;;;;;;;32.14;23.87;101205.50;7402037;19;20018;-53
2024/01/27 05:48:29;;;;;;;0.63;0.55;;;;;;;31.81;24.13;101201.28;7402487;19;20035;-54
2024/01/27 05:50:57;;;;;;;11.02;1.02;;;;;;;31.53;24.28;101196.03;7401484;19;20488;-53
2024/01/27 05:53:23;;;;;;;0.10;0.10;;;;;;;31.34;24.42;101200.19;7401364;19;20003;-53
2024/01/27 05:55:49;;;;;;;5.45;0.35;;;;;;;31.26;24.47;101199.50;7403257;19;20078;-53
2024/01/27 05:58:15;;;;;;;0.30;0.25;;;;;;;31.08;24.49;101195.03;7400347;19;20086;-54
2024/01/27 06:00:45;;;;;;;3.72;0.85;;;;;;;31.10;24.87;101195.22;7402099;19;20036;-53
2024/01/27 06:03:11;;;;;;;0.70;0.43;;;;;;;31.03;24.67;101193.19;7398973;19;20396;-53
2024/01/27 06:05:37;;;;;;;0.22;0.10;;;;;;;30.99;25.00;101198.56;7397402;19;20066;-54
2024/01/27 06:08:07;;;;;;;0.25;0.22;;;;;;;31.17;24.96;101202.25;7396738;19;20466;-53
2024/01/27 06:10:33;;;;;;;1.50;0.60;;;;;;;30.99;24.69;101195.69;7399830;19;20019;-53
2024/01/27 06:12:59;;;;;;;0.88;0.88;;;;;;;30.92;25.19;101198.63;7399487;19;20011;-54
2024/01/27 06:15:25;;;;;;;1.13;0.20;;;;;;;30.70;24.95;101183.03;7399905;19;20407;-54
2024/01/27 06:17:51;;;;;;;0.13;0.13;;;;;;;30.43;25.48;101176.31;7399607;19;20010;-54
2024/01/27 06:20:18;;;;;;;0.40;0.25;;;;;;;31.14;24.80;101174.66;7398544;19;20483;-54
2024/01/27 06:22:44;;;;;;;0.60;0.55;;;;;;;30.63;25.07;101189.59;7401322;19;20010;-53
2024/01/27 06:25:11;;;;;;;0.50;0.45;;;;;;;31.27;25.04;101172.22;7398955;19;20459;-53
2024/01/27 06:27:41;;;;;;;0.75;0.75;;;;;;;30.99;24.68;101175.53;7397015;19;20045;-54
2024/01/27 06:30:09;;;;;;;6.15;0.70;;;;;;;30.82;25.05;101178.34;7397909;19;20034;-54
2024/01/27 06:32:36;;;;;;;20.67;1.85;;;;;;;31.55;24.55;101173.16;7397735;19;20011;-54
2024/01/27 06:35:03;;;;;;;1.65;1.00;;;;;;;30.91;24.84;101191.34;7401080;19;20002;-53
2024/01/27 06:37:29;;;;;;;1.20;0.20;;;;;;;30.83;25.44;101181.97;7397607;19;20480;-54
2024/01/27 06:39:55;;;;;;;0.30;0.30;;;;;;;31.08;24.79;101188.53;7397879;19;20025;-54
2024/01/27 06:42:22;;;;;;;1.75;0.68;;;;;;;31.41;24.70;101181.34;7397727;19;20019;-53
2024/01/27 06:44:48;;;;;;;0.20;0.20;;;;;;;31.38;24.55;101183.25;7398392;19;20083;-54
2024/01/27 06:47:14;;;;;;;1.17;0.75;;;;;;;32.28;24.27;101174.97;7399626;19;20383;-53
2024/01/27 06:49:40;;;;;;;0.43;0.43;;;;;;;32.01;24.22;101171.31;7398246;19;20031;-53
2024/01/27 06:52:06;;;;;;;2.40;1.17;;;;;;;31.52;24.48;101192.38;7397433;19;20007;-53
2024/01/27 06:54:32;;;;;;;0.30;0.30;;;;;;;31.52;24.90;101180.09;7398387;19;20018;-53
2024/01/27 06:57:01;;;;;;;0.77;0.77;;;;;;;31.51;24.89;101178.56;7401713;19;20070;-53
2024/01/27 06:59:28;;;;;;;0.57;0.57;;;;;;;31.48;24.56;101182.63;7397353;19;20010;-53
2024/01/27 07:01:54;;;;;;;1.85;1.20;;;;;;;30.95;25.08;101183.09;7397310;19;20023;-54
2024/01/27 07:04:20;;;;;;;6.55;0.47;;;;;;;31.30;24.68;101182.56;7397584;19;20395;-53
2024/01/27 07:06:46;;;;;;;0.10;0.10;;;;;;;31.03;25.19;101193.19;7396666;19;20475;-53
2024/01/27 07:09:12;;;;;;;1.13;0.75;;;;;;;30.96;25.03;101193.22;7397213;19;20027;-53
2024/01/27 07:11:38;;;;;;;0.20;0.17;;;;;;;30.82;24.94;101184.09;7397415;19;20018;-53
2024/01/27 07:14:06;;;;;;;4.60;0.55;;;;;;;30.68;25.03;101195.13;7397242;19;20038;-53
2024/01/27 07:16:33;;;;;;;0.93;0.22;;;;;;;30.83;25.42;101197.13;7396667;19;20074;-53
2024/01/27 07:19:00;;;;;;;0.43;0.43;;;;;;;30.87;25.16;101191.75;7397442;19;20040;-54
2024/01/27 07:21:28;;;;;;;7.72;0.65;;;;;;;30.99;25.28;101198.56;7395604;19;20039;-54
2024/01/27 07:23:54;;;;;;;1.45;1.08;;;;;;;33.23;23.72;101189.13;7396937;19;20041;-53
2024/01/27 07:26:21;;;;;;;0.10;0.10;;;;;;;31.50;24.61;101195.09;7398228;19;20011;-53
2024/01/27 07:28:47;;;;;;;0.85;0.70;;;;;;;31.03;25.00;101187.44;7393813;19;20015;-54
2024/01/27 07:31:14;;;;;;;1.08;0.98;;;;;;;33.37;23.54;101189.47;7396437;19;20337;-53
2024/01/27 07:33:40;;;;;;;0.10;0.10;;;;;;;34.07;22.87;101185.44;7395736;19;20439;-53
2024/01/27 07:36:06;;;;;;;1.27;0.20;;;;;;;34.41;22.79;101185.09;7395213;19;20007;-53
2024/01/27 07:38:32;;;;;;;0.90;0.40;;;;;;;34.61;22.61;101189.47;7393569;19;20010;-54
2024/01/27 07:40:59;;;;;;;4.53;1.45;;;;;;;34.02;23.13;101190.19;7395502;19;20360;-54
2024/01/27 07:43:26;;;;;;;1.00;0.40;;;;;;;31.92;23.89;101200.78;7395154;19;20011;-54
2024/01/27 07:45:53;;;;;;;0.63;0.63;;;;;;;31.87;24.32;101198.91;7396306;19;20014;-53
2024/01/27 07:48:19;;;;;;;0.10;0.10;;;;;;;31.49;24.45;101204.31;7396260;19;20011;-53
2024/01/27 07:50:48;;;;;;;0.45;0.43;;;;;;;32.38;23.99;101192.34;7395468;19;20606;-54
2024/01/27 07:53:15;;;;;;;0.38;0.30;;;;;;;33.65;23.43;101202.47;7394592;19;20010;-53
2024/01/27 07:55:41;;;;;;;0.77;0.68;;;;;;;33.99;22.76;101194.25;7394711;19;20003;-54
2024/01/27 07:58:07;;;;;;;0.10;0.10;;;;;;;34.29;22.70;101195.75;7394642;19;20021;-53
2024/01/27 08:00:33;;;;;;;0.45;0.38;;;;;;;34.55;22.63;101211.41;7394466;19;20102;-53
2024/01/27 08:03:00;;;;;;;1.55;0.90;;;;;;;34.45;22.39;101219.34;7397963;19;20009;-53
2024/01/27 08:05:27;;;;;;;0.35;0.22;;;;;;;34.26;22.56;101203.53;7398921;19;20014;-54
2024/01/27 08:07:53;;;;;;;1.10;0.45;;;;;;;34.28;22.57;101194.25;7397277;19;20014;-53
2024/01/27 08:10:19;;;;;;;1.55;0.55;;;;;;;34.07;22.56;101197.78;7396765;19;20010;-53
2024/01/27 08:12:45;;;;;;;1.33;1.23;;;;;;;34.27;22.49;101192.72;7398294;19;20014;-53
2024/01/27 08:15:12;;;;;;;0.73;0.45;;;;;;;33.79;22.59;101198.50;7399632;19;20007;-53
2024/01/27 08:17:38;;;;;;;1.85;0.50;;;;;;;34.13;22.42;101191.69;7399337;19;20491;-54
2024/01/27 08:20:05;;;;;;;0.25;0.25;;;;;;;34.30;22.33;101186.50;7399112;19;20014;-53
2024/01/27 08:22:31;;;;;;;0.63;0.35;;;;;;;34.28;22.19;101192.09;7398927;19;20007;-53
2024/01/27 08:24:57;;;;;;;5.38;1.30;;;;;;;34.09;22.51;101200.06;7397561;19;20053;-54
2024/01/27 08:27:23;;;;;;;14.05;0.95;;;;;;;34.18;22.23;101202.94;7397152;19;20655;-54
2024/01/27 08:29:49;;;;;;;0.90;0.70;;;;;;;34.05;21.98;101200.50;7397057;19;20022;-54
2024/01/27 08:32:15;;;;;;;0.63;0.63;;;;;;;32.40;23.30;101204.03;7397894;19;20022;-54
2024/01/27 08:34:41;;;;;;;0.30;0.30;;;;;;;31.14;24.11;101215.75;7391328;19;20014;-50
2024/01/27 08:37:17;;;;;;;11.90;0.75;;;;;;;31.57;23.73;101216.53;7391878;19;20017;-51
2024/01/27 08:39:43;;;;;;;0.80;0.55;;;;;;;32.41;23.44;101203.44;7389804;19;20006;-50
2024/01/27 08:42:10;;;;;;;0.45;0.45;;;;;;;30.66;24.54;101208.56;7390997;19;20021;-51
2024/01/27 08:44:36;;;;;;;0.40;0.20;;;;;;;30.51;25.01;101202.91;7390928;19;20105;-51
2024/01/27 08:47:02;;;;;;;0.10;0.10;;;;;;;30.71;24.45;101225.59;7390072;19;20467;-51
2024/01/27 08:49:28;;;;;;;2.05;0.30;;;;;;;30.84;24.30;101233.19;7392114;19;20006;-50
2024/01/27 08:51:55;;;;;;;1.48;0.55;;;;;;;30.83;24.35;101208.66;7391070;19;20018;-51
2024/01/27 08:54:21;;;;;;;0.20;0.20;;;;;;;31.07;24.50;101219.44;7392410;19;20097;-51
2024/01/27 08:56:48;;;;;;;0.40;0.22;;;;;;;31.12;24.47;101229.94;7397338;19;20021;-51
2024/01/27 08:59:14;;;;;;;25.27;1.13;;;;;;;31.11;24.36;101221.91;7393844;19;20018;-51
2024/01/27 09:01:40;;;;;;;0.82;0.20;;;;;;;31.36;24.51;101220.53;7391846;19;20018;-51
2024/01/27 09:04:06;;;;;;;8.35;0.40;;;;;;;32.60;23.42;101218.00;7393531;19;20015;-50
2024/01/27 09:06:32;;;;;;;2.78;1.20;;;;;;;31.61;24.03;101213.97;7393020;19;20007;-50
2024/01/27 09:08:58;;;;;;;0.80;0.30;;;;;;;31.47;23.75;101209.91;7393637;19;20035;-50
2024/01/27 09:11:27;;;;;;;0.50;0.43;;;;;;;31.60;23.94;101209.59;7392940;19;20006;-50
2024/01/27 09:13:53;;;;;;;0.20;0.20;;;;;;;31.70;24.08;101208.31;7397812;19;20360;-51
2024/01/27 09:16:19;;;;;;;1.75;0.43;;;;;;;31.84;24.08;101200.84;7393684;19;20022;-51
2024/01/27 09:18:45;;;;;;;5.32;0.90;;;;;;;31.80;24.02;101206.28;7394048;19;20063;-51
2024/01/27 09:21:11;;;;;;;0.75;0.45;;;;;;;31.58;23.89;101212.31;7393850;19;20479;-51
2024/01/27 09:23:38;;;;;;;0.20;0.17;;;;;;;31.90;23.80;101212.13;7394697;19;20011;-51
2024/01/27 09:26:05;;;;;;;0.10;0.10;;;;;;;32.01;23.43;101211.66;7395234;19;20014;-51
2024/01/27 09:28:31;;;;;;;0.95;0.82;;;;;;;32.01;23.70;101215.28;7392341;19;20015;-51
2024/01/27 09:30:57;;;;;;;2.72;0.75;;;;;;;32.49;23.57;101218.53;7393533;19;20018;-51
2024/01/27 09:33:23;;;;;;;21.02;0.55;;;;;;;32.53;23.29;101227.53;7392459;19;20080;-51
2024/01/27 09:35:49;;;;;;;7.32;0.70;;;;;;;32.27;23.67;101231.09;7396596;19;20014;-50
2024/01/27 09:38:16;;;;;;;0.40;0.38;;;;;;;32.39;23.20;101226.34;7392287;19;20359;-50
2024/01/27 09:40:42;;;;;;;0.10;0.10;;;;;;;32.34;23.44;101224.47;7392347;19;20057;-51
2024/01/27 09:43:13;;;;;;;0.77;0.28;;;;;;;32.02;23.69;101222.59;7390328;19;20375;-51
2024/01/27 09:45:39;;;;;;;0.25;0.25;;;;;;;32.23;23.73;101219.25;7393316;19;20246;-50
2024/01/27 09:48:10;;;;;;;4.97;1.48;;;;;;;32.35;23.44;101220.25;7393992;19;20060;-50
2024/01/27 09:50:36;;;;;;;3.60;1.23;;;;;;;32.29;23.58;101216.88;7392281;19;20015;-50
2024/01/27 09:53:07;;;;;;;0.80;0.65;;;;;;;32.89;22.93;101221.81;7392332;19;20025;-50
2024/01/27 09:55:33;;;;;;;;;;;;;;;32.55;23.28;101227.69;7393353;19;20018;-51
2024/01/27 09:58:00;;;;;;;2.28;0.57;;;;;;;31.78;24.13;101219.75;7393852;19;19966;-51
2024/01/27 10:00:27;;;;;;;0.10;0.10;;;;;;;31.62;24.16;101224.91;7388195;19;20045;-50
2024/01/27 10:02:54;;;;;;;0.50;0.50;;;;;;;31.61;24.00;101234.16;7387648;19;20007;-51
2024/01/27 10:05:21;;;;;;;0.15;0.15;;;;;;;31.88;23.62;101241.53;7388069;19;20435;-51
2024/01/27 10:07:48;;;;;;;0.73;0.60;;;;;;;31.67;23.77;101226.00;7390459;19;20021;-51
2024/01/27 10:10:14;;;;;;;3.40;0.47;;;;;;;31.68;23.81;101227.56;7392329;19;20014;-51
2024/01/27 10:12:44;;;;;;;0.30;0.30;;;;;;;31.54;24.06;101246.50;7396543;19;20332;-51
2024/01/27 10:15:21;;;;;;;1.52;0.80;;;;;;;31.56;23.99;101232.25;7398702;19;20010;-50
2024/01/27 10:17:47;;;;;;;0.32;0.20;;;;;;;31.60;24.30;101235.50;7401224;19;20007;-50
2024/01/27 10:20:15;;;;;;;3.03;0.85;;;;;;;31.66;24.17;101236.03;7399162;19;20015;-51
2024/01/27 10:22:43;;;;;;;0.20;0.20;;;;;;;31.62;23.70;101241.44;7399204;19;20018;-51
2024/01/27 10:25:09;;;;;;;1.08;0.20;;;;;;;31.51;24.05;101242.72;7397744;19;20007;-50
2024/01/27 10:27:35;;;;;;;0.40;0.40;;;;;;;31.57;24.09;101243.22;7400459;19;20011;-50
2024/01/27 10:30:02;;;;;;;2.10;0.68;;;;;;;31.34;24.02;101243.38;7398775;19;20014;-51
2024/01/27 10:32:29;;;;;;;0.10;0.10;;;;;;;31.54;24.09;101232.88;7397139;19;20356;-50
2024/01/27 10:35:08;;;;;;;3.63;1.45;;;;;;;31.96;23.71;101224.19;7398253;19;20007;-51
2024/01/27 10:37:35;;;;;;;3.03;0.40;;;;;;;31.99;23.98;101223.75;7400450;19;20025;-51
2024/01/27 10:40:09;;;;;;;0.70;0.70;;;;;;;32.21;23.35;101219.06;7397472;19;20023;-51
2024/01/27 10:42:36;;;;;;;3.13;0.50;;;;;;;33.19;22.93;101208.25;7397812;19;20006;-50
2024/01/27 10:45:05;;;;;;;0.40;0.38;;;;;;;33.00;22.64;101211.09;7394816;19;20014;-81
2024/01/27 10:47:32;;;;;;;3.00;0.30;;;;;;;32.32;23.31;101212.78;7396484;19;20018;-81
2024/01/27 10:50:00;;;;;;;0.52;0.20;;;;;;;32.30;23.10;101212.63;7394435;19;20019;-80
2024/01/27 10:52:32;;;;;;;0.20;0.20;;;;;;;32.29;23.35;101214.00;7394003;19;20022;-81
2024/01/27 10:55:03;;;;;;;9.20;0.85;;;;;;;32.50;23.54;101214.31;7393883;19;20017;-81
2024/01/27 10:57:30;;;;;;;1.83;1.08;;;;;;;32.72;23.36;101207.44;7400667;19;20030;-80
2024/01/27 10:59:57;;;;;;;1.00;0.20;;;;;;;32.85;23.16;101204.16;7393326;19;20010;-81
2024/01/27 11:02:24;;;;;;;0.40;0.40;;;;;;;32.97;22.77;101203.59;7394519;19;20021;-80
2024/01/27 11:04:53;;;;;;;14.10;0.52;;;;;;;33.78;22.78;101199.13;7390862;19;20018;-81
2024/01/27 11:07:22;;;;;;;1.48;0.40;;;;;;;34.29;22.43;101202.31;7394895;19;20077;-81
2024/01/27 11:09:50;;;;;;;0.10;0.10;;;;;;;33.93;22.41;101207.50;7392832;19;20112;-81
2024/01/27 11:12:17;;;;;;;1.02;0.40;;;;;;;33.42;22.75;101208.63;7393815;19;20043;-81
2024/01/27 11:14:45;;;;;;;20.85;3.42;;;;;;;34.07;22.79;101199.91;7392549;19;20019;-80
2024/01/27 11:17:11;;;;;;;9.05;1.90;;;;;;;34.63;22.10;101206.22;7396376;19;20025;-80
2024/01/27 11:19:39;;;;;;;1.40;1.13;;;;;;;32.89;23.12;101204.50;7393958;19;20007;-81
2024/01/27 11:22:06;;;;;;;1.70;0.57;;;;;;;32.01;23.47;101197.25;7391591;19;20494;-82